Time;durP1;ratioP1;P1;durP2;ratioP2;P2;SDS_P1;SDS_P2;PMS_P1;PMS_P2;Temp;Humidity;BMP_temperature;BMP_pressure;BME280_temperature;BME280_humidity;BME280_pressure;Samples;Min_cycle;Max_cycle;Signal;HPM_P1;HPM_P2
2023/08/24 00:01:56;;;;;;;6.15;4.22;;;24.10;99.90;;;;;;4987091;28;20477;-78
2023/08/24 00:04:22;;;;;;;4.15;3.70;;;24.10;99.90;;;;;;4982611;28;20046;-78
2023/08/24 00:06:49;;;;;;;5.55;3.92;;;24.10;99.90;;;;;;4980391;28;20042;-78
2023/08/24 00:09:16;;;;;;;6.97;4.07;;;24.10;99.90;;;;;;4989743;28;20427;-78
2023/08/24 00:11:43;;;;;;;6.32;4.13;;;24.00;99.90;;;;;;4992666;28;20046;-78
2023/08/24 00:14:09;;;;;;;7.32;4.30;;;24.00;99.90;;;;;;4985385;28;20051;-78
2023/08/24 00:16:37;;;;;;;4.22;3.83;;;24.00;99.90;;;;;;4984898;28;20046;-78
2023/08/24 00:19:04;;;;;;;6.78;3.90;;;23.90;99.90;;;;;;4984863;28;20090;-78
2023/08/24 00:21:30;;;;;;;6.28;4.00;;;23.90;99.90;;;;;;4977688;28;20055;-78
2023/08/24 00:23:57;;;;;;;5.30;4.43;;;23.90;99.90;;;;;;4989114;28;20042;-78
2023/08/24 00:26:24;;;;;;;5.60;4.00;;;23.90;99.90;;;;;;4989867;28;20090;-78
2023/08/24 00:28:51;;;;;;;4.90;4.28;;;23.90;99.90;;;;;;4988171;28;20061;-79
2023/08/24 00:31:18;;;;;;;5.72;4.57;;;23.90;99.90;;;;;;4984703;28;20418;-79
2023/08/24 00:33:45;;;;;;;6.97;4.35;;;23.80;99.90;;;;;;4986189;28;20051;-78
2023/08/24 00:36:12;;;;;;;10.48;4.30;;;23.80;99.90;;;;;;4980308;28;20050;-78
2023/08/24 00:38:39;;;;;;;4.82;4.32;;;23.80;99.90;;;;;;4992588;28;20054;-78
2023/08/24 00:41:06;;;;;;;5.65;4.40;;;23.80;99.90;;;;;;4990576;28;20068;-78
2023/08/24 00:43:32;;;;;;;4.68;3.97;;;23.70;99.90;;;;;;4983839;28;20058;-79
2023/08/24 00:46:01;;;;;;;8.15;4.95;;;23.70;99.90;;;;;;4981788;28;20046;-78
2023/08/24 00:48:29;;;;;;;4.30;3.90;;;23.70;99.90;;;;;;4983075;28;20507;-77
2023/08/24 00:50:59;;;;;;;4.85;4.22;;;23.60;99.90;;;;;;4981688;28;20042;-78
2023/08/24 00:53:27;;;;;;;6.13;4.93;;;23.60;99.90;;;;;;4990126;28;20051;-78
2023/08/24 00:55:54;;;;;;;6.40;4.40;;;23.60;99.90;;;;;;4988147;28;20057;-77
2023/08/24 00:58:22;;;;;;;4.60;3.80;;;23.60;99.90;;;;;;4982087;28;20402;-78
2023/08/24 01:00:52;;;;;;;5.72;5.10;;;23.60;99.90;;;;;;4981902;28;20055;-78
2023/08/24 01:03:18;;;;;;;7.50;4.80;;;23.50;99.90;;;;;;4983225;28;20047;-79
2023/08/24 01:05:45;;;;;;;5.78;4.60;;;23.60;99.90;;;;;;4986068;28;20062;-78
2023/08/24 01:08:13;;;;;;;7.38;4.10;;;23.50;99.90;;;;;;4989145;28;20042;-78
2023/08/24 01:11:05;;;;;;;7.05;4.85;;;23.50;99.90;;;;;;4987424;28;20054;-79
2023/08/24 01:13:45;;;;;;;5.78;4.13;;;23.50;99.90;;;;;;4983504;28;20481;-78
2023/08/24 01:16:18;;;;;;;7.18;4.68;;;23.50;99.90;;;;;;4983628;28;20050;-79
2023/08/24 01:18:46;;;;;;;5.32;4.10;;;23.50;99.90;;;;;;4983103;28;20071;-78
2023/08/24 01:21:15;;;;;;;7.80;4.55;;;23.50;99.90;;;;;;4991517;28;20045;-78
2023/08/24 01:23:49;;;;;;;8.55;4.68;;;23.40;99.90;;;;;;4991406;28;20469;-78
2023/08/24 01:26:20;;;;;;;5.00;4.53;;;23.40;99.90;;;;;;4991213;28;20105;-78
2023/08/24 01:28:47;;;;;;;8.25;4.68;;;23.50;99.90;;;;;;5003309;28;20486;-79
2023/08/24 01:31:16;;;;;;;7.97;4.32;;;23.50;99.90;;;;;;4983504;28;20093;-79
2023/08/24 01:33:44;;;;;;;5.90;4.35;;;23.50;99.90;;;;;;4985706;28;20047;-78
2023/08/24 01:36:13;;;;;;;5.63;4.38;;;23.50;99.90;;;;;;4995083;28;20112;-78
2023/08/24 01:38:41;;;;;;;5.05;4.30;;;23.50;99.90;;;;;;4988715;28;20053;-79
2023/08/24 01:41:10;;;;;;;5.22;4.15;;;23.50;99.90;;;;;;4989429;28;20050;-78
2023/08/24 01:43:40;;;;;;;5.30;4.65;;;23.50;99.90;;;;;;4980583;28;20042;-77
2023/08/24 01:46:14;;;;;;;5.07;4.57;;;23.50;99.90;;;;;;4986399;28;20078;-78
2023/08/24 01:48:43;;;;;;;6.15;4.00;;;23.50;99.90;;;;;;4989976;28;20553;-78
2023/08/24 01:51:10;;;;;;;7.10;4.22;;;23.50;99.90;;;;;;4992172;28;20053;-78
2023/08/24 01:53:39;;;;;;;5.70;4.07;;;23.50;99.90;;;;;;4985539;28;20050;-78
2023/08/24 01:56:13;;;;;;;9.05;5.13;;;23.50;99.90;;;;;;4990202;28;20493;-78
2023/08/24 01:58:39;;;;;;;6.97;4.18;;;23.50;99.90;;;;;;4983062;28;20055;-78
2023/08/24 02:01:12;;;;;;;5.13;4.25;;;23.40;99.90;;;;;;4986509;28;20126;-78
2023/08/24 02:03:39;;;;;;;8.02;4.53;;;23.40;99.90;;;;;;4992697;28;20097;-79
2023/08/24 02:06:07;;;;;;;5.18;3.97;;;23.40;99.90;;;;;;4993961;28;20552;-78
2023/08/24 02:08:34;;;;;;;5.57;4.38;;;23.40;99.90;;;;;;4986412;28;20429;-79
2023/08/24 02:11:01;;;;;;;9.40;4.40;;;23.40;99.90;;;;;;4991077;28;20057;-78
2023/08/24 02:13:28;;;;;;;5.43;4.25;;;23.40;99.90;;;;;;4984280;28;20049;-78
2023/08/24 02:16:05;;;;;;;4.40;4.00;;;23.40;99.90;;;;;;4984249;28;20108;-77
2023/08/24 02:18:32;;;;;;;6.75;4.50;;;23.40;99.90;;;;;;5007447;28;20483;-78
2023/08/24 02:20:59;;;;;;;5.80;5.15;;;23.30;99.90;;;;;;4995039;28;20046;-78
2023/08/24 02:23:26;;;;;;;5.07;4.32;;;23.30;99.90;;;;;;4984680;28;20572;-77
2023/08/24 02:25:53;;;;;;;5.85;4.10;;;23.30;99.90;;;;;;4988400;28;20113;-78
2023/08/24 02:28:19;;;;;;;7.35;4.50;;;23.30;99.90;;;;;;4981493;28;20043;-78
2023/08/24 02:30:46;;;;;;;6.18;4.03;;;23.40;99.90;;;;;;4984055;28;20398;-78
2023/08/24 02:33:13;;;;;;;8.57;5.10;;;23.40;99.90;;;;;;4991405;28;20047;-78
2023/08/24 02:35:40;;;;;;;4.72;4.20;;;23.40;99.90;;;;;;4989690;28;20050;-78
2023/08/24 02:38:06;;;;;;;6.72;4.40;;;23.40;99.90;;;;;;4982328;28;20042;-78
2023/08/24 02:40:33;;;;;;;4.95;4.00;;;23.40;99.90;;;;;;4985983;28;20047;-78
2023/08/24 02:43:00;;;;;;;7.68;4.82;;;23.40;99.90;;;;;;4983647;28;20042;-77
2023/08/24 02:45:26;;;;;;;4.45;4.05;;;23.40;99.90;;;;;;4982575;28;20078;-78
2023/08/24 02:47:53;;;;;;;9.07;4.70;;;23.40;99.90;;;;;;4992329;28;20398;-78
2023/08/24 02:50:20;;;;;;;7.63;4.50;;;23.40;99.90;;;;;;4990164;28;20053;-78
2023/08/24 02:52:46;;;;;;;6.47;4.28;;;23.40;99.90;;;;;;4984923;28;20047;-78
2023/08/24 02:55:13;;;;;;;5.00;3.97;;;23.40;99.90;;;;;;4989102;28;20469;-78
2023/08/24 02:57:40;;;;;;;6.28;4.72;;;23.40;99.90;;;;;;4982904;28;20101;-79
2023/08/24 03:00:09;;;;;;;4.97;4.18;;;23.40;99.90;;;;;;4982935;28;20402;-78
2023/08/24 03:02:36;;;;;;;4.60;4.05;;;23.40;99.90;;;;;;4991403;28;20506;-78
2023/08/24 03:05:03;;;;;;;6.75;4.53;;;23.40;99.90;;;;;;4992015;28;20049;-78
2023/08/24 03:07:30;;;;;;;5.47;4.25;;;23.40;99.90;;;;;;4982818;28;20047;-78
2023/08/24 03:09:57;;;;;;;7.13;4.03;;;23.40;99.90;;;;;;4986980;28;20050;-78
2023/08/24 03:12:23;;;;;;;8.13;4.75;;;23.40;99.90;;;;;;4998034;28;20043;-78
2023/08/24 03:14:53;;;;;;;6.75;4.55;;;23.40;99.90;;;;;;4984601;28;20149;-78
2023/08/24 03:17:20;;;;;;;7.32;4.70;;;23.40;99.90;;;;;;4989364;28;20540;-79
2023/08/24 03:19:47;;;;;;;8.55;4.13;;;23.40;99.90;;;;;;4989452;28;20426;-78
2023/08/24 03:22:14;;;;;;;7.03;5.55;;;23.40;99.90;;;;;;4984984;28;20061;-78
2023/08/24 03:24:41;;;;;;;7.50;4.72;;;23.40;99.90;;;;;;4984403;28;20480;-78
2023/08/24 03:27:07;;;;;;;7.15;4.78;;;23.40;99.90;;;;;;4984894;28;20073;-78
2023/08/24 03:29:34;;;;;;;7.28;4.75;;;23.30;99.90;;;;;;5005629;28;20089;-79
2023/08/24 03:32:01;;;;;;;5.95;4.65;;;23.30;99.90;;;;;;4991164;28;20077;-79
2023/08/24 03:34:29;;;;;;;7.07;5.15;;;23.30;99.90;;;;;;4987754;28;20051;-78
2023/08/24 03:36:56;;;;;;;6.82;4.82;;;23.20;99.90;;;;;;4980936;28;20055;-78
2023/08/24 03:39:23;;;;;;;6.32;4.63;;;23.20;99.90;;;;;;4982178;28;20046;-78
2023/08/24 03:41:49;;;;;;;4.60;4.05;;;23.20;99.90;;;;;;4986456;28;20046;-78
2023/08/24 03:44:16;;;;;;;6.90;4.72;;;23.20;99.90;;;;;;4990469;28;20406;-78
2023/08/24 03:46:43;;;;;;;6.68;4.20;;;23.10;99.90;;;;;;4991641;28;20125;-78
2023/08/24 03:49:10;;;;;;;5.43;4.93;;;23.10;99.90;;;;;;4997752;28;20038;-78
2023/08/24 03:51:36;;;;;;;6.80;5.38;;;23.10;99.90;;;;;;4988564;28;20051;-78
2023/08/24 03:54:05;;;;;;;7.72;4.95;;;23.10;99.90;;;;;;4981235;28;20050;-77
2023/08/24 03:56:32;;;;;;;6.13;5.10;;;23.00;99.90;;;;;;4983754;28;20452;-78
2023/08/24 03:58:58;;;;;;;6.85;5.13;;;23.00;99.90;;;;;;4991821;28;20058;-78
2023/08/24 04:01:25;;;;;;;9.45;5.82;;;23.00;99.90;;;;;;4986222;28;20108;-78
2023/08/24 04:03:52;;;;;;;7.90;4.72;;;23.00;99.90;;;;;;4986016;28;20050;-78
2023/08/24 04:06:19;;;;;;;6.80;5.05;;;22.90;99.90;;;;;;4988805;28;20097;-78
2023/08/24 04:08:46;;;;;;;5.85;5.25;;;22.90;99.90;;;;;;4977708;28;20062;-78
2023/08/24 04:11:13;;;;;;;5.97;4.82;;;22.90;99.90;;;;;;4992616;28;20064;-79
2023/08/24 04:13:39;;;;;;;8.35;5.43;;;22.90;99.90;;;;;;4991302;28;20046;-80
2023/08/24 04:16:06;;;;;;;6.93;5.10;;;22.80;99.90;;;;;;4992890;28;20518;-80
2023/08/24 04:18:33;;;;;;;6.78;4.65;;;22.80;99.90;;;;;;4987534;28;20049;-80
2023/08/24 04:21:00;;;;;;;9.43;5.22;;;22.80;99.90;;;;;;4990824;28;20051;-79
2023/08/24 04:23:27;;;;;;;7.18;4.60;;;22.80;99.90;;;;;;4984870;28;20105;-80
2023/08/24 04:25:54;;;;;;;5.18;4.65;;;22.80;99.90;;;;;;5002618;28;20051;-80
2023/08/24 04:28:21;;;;;;;9.25;5.20;;;22.80;99.90;;;;;;5010906;28;20068;-80
2023/08/24 04:30:55;;;;;;;4.97;4.50;;;22.70;99.90;;;;;;5004742;28;20536;-80
2023/08/24 04:33:23;;;;;;;5.60;4.70;;;22.70;99.90;;;;;;4986371;28;20053;-79
2023/08/24 04:35:50;;;;;;;7.20;4.55;;;22.70;99.90;;;;;;4993974;28;20057;-80
2023/08/24 04:38:17;;;;;;;6.85;5.05;;;22.70;99.90;;;;;;4981872;28;20050;-81
2023/08/24 04:40:52;;;;;;;8.13;4.80;;;22.70;99.90;;;;;;4994767;28;20062;-79
2023/08/24 04:43:21;;;;;;;9.20;5.35;;;22.70;99.90;;;;;;4993479;28;20057;-80
2023/08/24 04:45:49;;;;;;;6.60;4.95;;;22.70;99.90;;;;;;4991632;28;20047;-80
2023/08/24 04:48:16;;;;;;;5.72;4.43;;;22.70;99.90;;;;;;4994321;28;20085;-80
2023/08/24 04:50:44;;;;;;;6.55;4.07;;;22.70;99.90;;;;;;4999371;28;20047;-81
2023/08/24 04:53:15;;;;;;;6.90;4.55;;;22.70;99.90;;;;;;4993891;28;20043;-80
2023/08/24 04:55:42;;;;;;;5.50;4.65;;;22.70;99.90;;;;;;5007605;28;20121;-79
2023/08/24 04:58:10;;;;;;;6.68;4.25;;;22.80;99.90;;;;;;5014445;28;20062;-80
2023/08/24 05:00:37;;;;;;;8.32;4.32;;;22.80;99.90;;;;;;5005771;28;20069;-81
2023/08/24 05:03:05;;;;;;;7.22;4.38;;;22.80;99.90;;;;;;5002675;28;20046;-80
2023/08/24 05:05:33;;;;;;;7.07;5.20;;;22.80;99.90;;;;;;5003127;28;20066;-80
2023/08/24 05:08:02;;;;;;;10.52;4.97;;;22.80;99.90;;;;;;5012056;28;20053;-81
2023/08/24 05:10:33;;;;;;;6.10;4.85;;;22.80;99.90;;;;;;5009406;28;20043;-81
2023/08/24 05:12:59;;;;;;;6.80;4.85;;;22.80;99.90;;;;;;5007182;28;20046;-80
2023/08/24 05:15:26;;;;;;;5.63;4.63;;;22.90;99.90;;;;;;5003718;28;20131;-80
2023/08/24 05:17:55;;;;;;;5.15;4.55;;;22.90;99.90;;;;;;5001143;28;20102;-81
2023/08/24 05:20:22;;;;;;;7.35;5.22;;;22.90;99.90;;;;;;5004897;28;20391;-80
2023/08/24 05:22:49;;;;;;;7.80;4.97;;;22.90;99.90;;;;;;5003352;28;20062;-81
2023/08/24 05:25:16;;;;;;;6.63;4.93;;;22.90;99.90;;;;;;5006344;28;20421;-80
2023/08/24 05:27:43;;;;;;;8.98;4.90;;;23.00;99.90;;;;;;4994240;28;20053;-80
2023/08/24 05:30:11;;;;;;;6.55;5.22;;;23.00;99.90;;;;;;5002978;28;20050;-79
2023/08/24 05:32:38;;;;;;;9.52;5.38;;;23.00;99.90;;;;;;4986675;28;20074;-80
2023/08/24 05:35:06;;;;;;;7.97;4.90;;;23.00;99.90;;;;;;4992201;28;20055;-80
2023/08/24 05:37:33;;;;;;;7.93;5.18;;;23.00;99.90;;;;;;4991805;28;20096;-80
2023/08/24 05:40:01;;;;;;;5.88;5.07;;;23.00;99.90;;;;;;5002674;28;20124;-80
2023/08/24 05:42:30;;;;;;;4.78;4.20;;;23.00;99.90;;;;;;4996186;28;20046;-80
2023/08/24 05:44:57;;;;;;;7.35;5.10;;;23.10;99.90;;;;;;4993176;28;20105;-80
2023/08/24 05:47:24;;;;;;;7.50;5.28;;;23.10;99.90;;;;;;4992007;28;20081;-80
2023/08/24 05:49:51;;;;;;;9.68;5.55;;;23.20;99.90;;;;;;4995082;28;20398;-80
2023/08/24 05:52:17;;;;;;;8.30;5.53;;;23.20;99.90;;;;;;4998652;28;20100;-80
2023/08/24 05:54:44;;;;;;;6.60;5.13;;;23.20;99.90;;;;;;4995887;28;20155;-80
2023/08/24 05:57:11;;;;;;;9.25;5.20;;;23.20;99.90;;;;;;4996746;28;20051;-81
2023/08/24 05:59:37;;;;;;;7.78;5.13;;;23.30;99.90;;;;;;4996987;28;20043;-80
2023/08/24 06:02:05;;;;;;;5.85;5.20;;;23.30;99.90;;;;;;4990547;28;20050;-81
2023/08/24 06:04:31;;;;;;;7.30;5.20;;;23.30;99.90;;;;;;4995065;28;20469;-80
2023/08/24 06:06:58;;;;;;;8.00;5.55;;;23.30;99.90;;;;;;5002915;28;20042;-81
2023/08/24 06:09:25;;;;;;;12.27;5.30;;;23.30;99.90;;;;;;5008906;28;20043;-82
2023/08/24 06:11:52;;;;;;;6.65;5.18;;;23.40;99.90;;;;;;5002639;28;20452;-81
2023/08/24 06:14:19;;;;;;;10.35;5.80;;;23.40;99.90;;;;;;4998913;28;20050;-80
2023/08/24 06:16:46;;;;;;;9.60;5.68;;;23.40;99.90;;;;;;4995136;28;20054;-80
2023/08/24 06:19:13;;;;;;;7.47;5.13;;;23.50;99.90;;;;;;5003954;28;20065;-80
2023/08/24 06:21:39;;;;;;;8.70;5.07;;;23.50;99.90;;;;;;4999476;28;20258;-81
2023/08/24 06:24:06;;;;;;;11.00;5.30;;;23.60;99.90;;;;;;4995731;28;20069;-80
2023/08/24 06:26:33;;;;;;;9.02;5.47;;;23.70;99.90;;;;;;4993384;28;20043;-80
2023/08/24 06:28:59;;;;;;;11.55;5.25;;;23.80;99.90;;;;;;4995993;28;20050;-80
2023/08/24 06:31:26;;;;;;;9.05;5.32;;;23.80;99.90;;;;;;4993371;28;20043;-80
2023/08/24 06:33:53;;;;;;;6.82;5.35;;;23.90;99.90;;;;;;4999414;28;20042;-80
2023/08/24 06:36:20;;;;;;;5.43;4.90;;;24.00;99.90;;;;;;4998654;28;20506;-81
2023/08/24 06:38:46;;;;;;;6.60;5.00;;;24.00;99.90;;;;;;4991793;28;20076;-81
2023/08/24 06:41:13;;;;;;;7.70;5.40;;;24.10;99.90;;;;;;4996249;28;20055;-80
2023/08/24 06:43:40;;;;;;;5.78;4.50;;;24.10;99.90;;;;;;4994191;28;20054;-81
2023/08/24 06:46:07;;;;;;;6.63;5.18;;;24.10;99.90;;;;;;4988701;28;20494;-81
2023/08/24 06:48:37;;;;;;;7.97;5.43;;;24.20;99.90;;;;;;4998457;28;20057;-81
2023/08/24 06:51:03;;;;;;;8.75;5.68;;;24.20;99.90;;;;;;4998338;28;20053;-81
2023/08/24 06:53:31;;;;;;;7.95;6.00;;;24.30;99.90;;;;;;4999827;28;20101;-80
2023/08/24 06:55:58;;;;;;;11.30;6.20;;;24.30;99.90;;;;;;4995399;28;20046;-79
2023/08/24 06:58:25;;;;;;;9.45;6.03;;;24.30;99.90;;;;;;5012204;28;20049;-81
2023/08/24 07:00:51;;;;;;;13.05;6.05;;;24.30;99.90;;;;;;5002225;28;20062;-81
2023/08/24 07:03:18;;;;;;;11.20;6.43;;;24.30;99.90;;;;;;5010688;28;20054;-81
2023/08/24 07:05:46;;;;;;;14.30;5.88;;;24.30;99.90;;;;;;5004845;28;20047;-80
2023/08/24 07:08:13;;;;;;;9.38;5.65;;;24.30;99.90;;;;;;5004970;28;20051;-80
2023/08/24 07:10:42;;;;;;;8.68;5.25;;;24.30;99.90;;;;;;4997093;28;20573;-80
2023/08/24 07:13:09;;;;;;;9.10;5.93;;;24.30;99.90;;;;;;5001031;28;20042;-81
2023/08/24 07:15:36;;;;;;;8.38;5.90;;;24.20;99.90;;;;;;4994289;28;20076;-81
2023/08/24 07:18:05;;;;;;;12.85;5.65;;;24.20;99.90;;;;;;4997259;28;20105;-81
2023/08/24 07:20:33;;;;;;;7.03;6.13;;;24.20;99.90;;;;;;5000898;28;20066;-81
2023/08/24 07:23:00;;;;;;;11.15;6.43;;;24.10;99.90;;;;;;4999376;28;20502;-79
2023/08/24 07:25:29;;;;;;;12.10;5.80;;;24.10;99.90;;;;;;4996302;28;20054;-81
2023/08/24 07:27:59;;;;;;;12.45;6.15;;;24.10;99.90;;;;;;5004926;28;20050;-81
2023/08/24 07:30:26;;;;;;;10.60;5.97;;;24.10;99.90;;;;;;4995120;28;20058;-83
2023/08/24 07:33:01;;;;;;;15.75;5.93;;;24.10;99.90;;;;;;5004925;28;20057;-81
2023/08/24 07:35:28;;;;;;;6.38;5.40;;;24.10;99.90;;;;;;5003822;28;20042;-82
2023/08/24 07:37:56;;;;;;;4.97;4.45;;;24.10;99.90;;;;;;5006412;28;20039;-83
2023/08/24 07:40:23;;;;;;;10.40;5.65;;;24.10;99.90;;;;;;5001505;28;20050;-82
2023/08/24 07:42:54;;;;;;;8.38;5.57;;;24.10;99.90;;;;;;5008839;28;20266;-82
2023/08/24 07:45:21;;;;;;;8.93;5.20;;;24.20;99.90;;;;;;5020219;28;20065;-82
2023/08/24 07:47:48;;;;;;;8.65;5.40;;;24.10;99.90;;;;;;5007558;28;20066;-81
2023/08/24 07:50:15;;;;;;;6.78;5.75;;;24.20;99.90;;;;;;5002793;28;20045;-82
2023/08/24 07:52:42;;;;;;;9.88;5.40;;;24.10;99.90;;;;;;5006083;28;20074;-81
2023/08/24 07:55:09;;;;;;;9.68;6.07;;;24.20;99.90;;;;;;4998322;28;20050;-82
2023/08/24 07:57:37;;;;;;;9.82;5.80;;;24.20;99.90;;;;;;4998995;28;20085;-81
2023/08/24 08:00:05;;;;;;;11.57;6.93;;;24.20;99.90;;;;;;5002881;28;20042;-82
2023/08/24 08:02:37;;;;;;;7.70;5.43;;;24.30;99.90;;;;;;5000150;28;20058;-82
2023/08/24 08:05:06;;;;;;;13.38;5.90;;;24.20;99.90;;;;;;4999048;28;20502;-81
2023/08/24 08:07:33;;;;;;;5.95;4.75;;;24.30;99.90;;;;;;5001320;28;20042;-81
2023/08/24 08:09:59;;;;;;;8.20;5.30;;;24.30;99.90;;;;;;4995958;28;20050;-81
2023/08/24 08:12:26;;;;;;;8.95;5.80;;;24.40;99.90;;;;;;5002812;28;20120;-82
2023/08/24 08:14:53;;;;;;;5.65;5.05;;;24.40;99.90;;;;;;5019382;28;20051;-82
2023/08/24 08:17:20;;;;;;;7.18;5.07;;;24.50;99.90;;;;;;5005639;28;20081;-81
2023/08/24 08:19:46;;;;;;;6.35;4.90;;;24.50;99.90;;;;;;4999615;28;20055;-81
2023/08/24 08:22:13;;;;;;;8.23;4.97;;;24.60;99.90;;;;;;5005030;28;20053;-81
2023/08/24 08:24:40;;;;;;;9.35;5.88;;;24.70;99.90;;;;;;4996703;28;20050;-82
2023/08/24 08:27:07;;;;;;;5.20;4.70;;;24.70;99.90;;;;;;5002962;28;20047;-82
2023/08/24 08:29:34;;;;;;;6.30;5.57;;;24.80;99.90;;;;;;5006771;28;20078;-83
2023/08/24 08:32:01;;;;;;;6.93;4.63;;;24.80;99.90;;;;;;5006468;28;20140;-82
2023/08/24 08:34:28;;;;;;;10.05;4.78;;;24.90;99.90;;;;;;5005137;28;20096;-81
2023/08/24 08:36:55;;;;;;;8.93;5.10;;;25.00;99.90;;;;;;5006768;28;20493;-82
2023/08/24 08:39:21;;;;;;;9.45;4.72;;;25.10;99.90;;;;;;4999778;28;20058;-82
2023/08/24 08:41:51;;;;;;;8.03;4.60;;;25.10;99.90;;;;;;5008250;28;20047;-82
2023/08/24 08:44:19;;;;;;;5.97;4.68;;;25.30;99.90;;;;;;5006770;28;20050;-82
2023/08/24 08:46:47;;;;;;;7.82;4.93;;;25.30;99.90;;;;;;5002550;28;20047;-82
2023/08/24 08:49:15;;;;;;;5.72;4.30;;;25.40;99.90;;;;;;5004920;28;20068;-82
2023/08/24 08:51:42;;;;;;;6.63;4.22;;;25.50;99.90;;;;;;5004617;28;20053;-82
2023/08/24 08:54:09;;;;;;;8.48;4.68;;;25.60;99.90;;;;;;5008070;28;20046;-80
2023/08/24 08:56:36;;;;;;;10.98;4.50;;;25.80;99.90;;;;;;4999541;28;20491;-79
2023/08/24 08:59:06;;;;;;;7.00;4.55;;;25.90;99.90;;;;;;4999359;28;20106;-82
2023/08/24 09:01:33;;;;;;;8.57;4.65;;;26.10;99.90;;;;;;5003335;28;20050;-80
2023/08/24 09:04:00;;;;;;;9.85;4.20;;;26.10;99.90;;;;;;5007443;28;20046;-82
2023/08/24 09:06:28;;;;;;;8.52;4.55;;;26.30;99.90;;;;;;5007010;28;20073;-82
2023/08/24 09:08:56;;;;;;;5.82;4.55;;;26.40;99.90;;;;;;5005330;28;20047;-81
2023/08/24 09:11:23;;;;;;;6.90;4.90;;;26.50;99.90;;;;;;5006748;28;20042;-82
2023/08/24 09:13:50;;;;;;;7.88;4.18;;;26.60;99.90;;;;;;5009696;28;20054;-82
2023/08/24 09:16:17;;;;;;;6.18;4.32;;;26.70;99.90;;;;;;5010514;28;20097;-82
2023/08/24 09:18:47;;;;;;;5.53;4.07;;;26.80;99.90;;;;;;5014102;28;20054;-82
2023/08/24 09:21:15;;;;;;;8.07;4.47;;;26.90;99.90;;;;;;5011775;28;20079;-81
2023/08/24 09:23:55;;;;;;;8.82;4.45;;;27.00;99.90;;;;;;5006460;28;20058;-82
2023/08/24 09:26:29;;;;;;;;;;;27.10;99.90;;;;;;5009521;28;20057;-83
2023/08/24 09:28:57;;;;;;;11.70;4.28;;;27.20;99.90;;;;;;5010132;28;19977;-81
2023/08/24 09:31:38;;;;;;;4.82;4.15;;;27.30;99.90;;;;;;5007960;28;20038;-82
2023/08/24 09:34:06;;;;;;;7.20;3.78;;;27.30;99.90;;;;;;5009344;28;20560;-82
2023/08/24 09:36:34;;;;;;;6.25;3.30;;;27.40;99.90;;;;;;5008689;28;20054;-82
2023/08/24 09:39:04;;;;;;;7.47;3.90;;;27.40;99.90;;;;;;5008292;28;20046;-82
2023/08/24 09:41:45;;;;;;;8.25;3.97;;;27.50;99.90;;;;;;4996597;28;20152;-79
2023/08/24 09:44:12;;;;;;;5.68;4.28;;;27.50;99.90;;;;;;4998665;28;20077;-80
2023/08/24 09:46:40;;;;;;;7.63;4.20;;;27.40;99.90;;;;;;4994638;28;20054;-79
2023/08/24 09:49:09;;;;;;;4.93;4.43;;;27.40;99.90;;;;;;4992638;28;20053;-80
2023/08/24 09:51:37;;;;;;;5.40;3.83;;;27.40;99.90;;;;;;4999071;28;20455;-79
2023/08/24 09:54:08;;;;;;;8.20;4.03;;;27.40;99.90;;;;;;4998132;28;20118;-79
2023/08/24 09:56:37;;;;;;;10.20;3.67;;;27.30;99.90;;;;;;4996921;28;20050;-79
2023/08/24 09:59:13;;;;;;;9.82;4.13;;;27.30;99.90;;;;;;5011321;28;20054;-80
2023/08/24 10:01:50;;;;;;;6.32;3.92;;;27.30;99.90;;;;;;5001366;28;20058;-81
2023/08/24 10:04:29;;;;;;;7.50;4.63;;;27.30;99.90;;;;;;4998839;28;20054;-80
2023/08/24 10:07:02;;;;;;;7.20;3.87;;;27.30;99.90;;;;;;5002933;28;20051;-81
2023/08/24 10:09:39;;;;;;;9.50;3.95;;;27.30;99.90;;;;;;5006635;28;20049;-80
2023/08/24 10:12:09;;;;;;;6.70;3.75;;;27.40;99.90;;;;;;5000427;28;20054;-80
2023/08/24 10:14:47;;;;;;;6.38;3.85;;;27.40;99.90;;;;;;5006506;28;20664;-81
2023/08/24 10:17:14;;;;;;;7.45;4.32;;;27.40;99.90;;;;;;5004084;28;20070;-81
2023/08/24 10:19:43;;;;;;;8.07;4.18;;;27.50;99.90;;;;;;4997738;28;20054;-81
2023/08/24 10:22:12;;;;;;;5.07;3.97;;;27.50;99.90;;;;;;5002570;28;20097;-81
2023/08/24 10:24:39;;;;;;;8.70;4.53;;;27.60;99.90;;;;;;5011607;28;20046;-80
2023/08/24 10:27:09;;;;;;;4.93;3.78;;;27.70;99.90;;;;;;5002930;28;20046;-81
2023/08/24 10:29:36;;;;;;;4.70;3.65;;;27.70;99.90;;;;;;5003331;28;20101;-80
2023/08/24 10:32:04;;;;;;;5.85;3.83;;;27.80;99.90;;;;;;4991419;28;20051;-79
2023/08/24 10:34:31;;;;;;;5.70;3.25;;;27.80;99.90;;;;;;4995918;28;20046;-80
2023/08/24 10:37:06;;;;;;;9.55;3.95;;;27.90;99.90;;;;;;4996335;28;20568;-80
2023/08/24 10:39:35;;;;;;;8.57;3.95;;;28.00;99.90;;;;;;5000232;28;20062;-79
2023/08/24 10:42:02;;;;;;;6.23;3.90;;;28.00;99.90;;;;;;4997734;28;20102;-80
2023/08/24 10:44:36;;;;;;;7.63;3.97;;;28.00;99.90;;;;;;4998031;28;20046;-79
2023/08/24 10:47:14;;;;;;;9.07;3.33;;;28.00;99.90;;;;;;4993191;28;20047;-80
2023/08/24 10:49:54;;;;;;;10.00;3.88;;;28.00;99.90;;;;;;4992002;28;20108;-80
2023/08/24 10:52:22;;;;;;;;;;;28.10;99.90;;;;;;5000009;28;20047;-80
2023/08/24 10:54:51;;;;;;;4.88;3.55;;;28.10;99.90;;;;;;4994362;28;20341;-81
2023/08/24 10:57:29;;;;;;;7.78;3.33;;;28.10;99.90;;;;;;4995952;28;20078;-80
2023/08/24 10:59:59;;;;;;;6.18;3.90;;;28.10;99.90;;;;;;5000755;28;20050;-80
2023/08/24 11:02:26;;;;;;;6.50;3.50;;;28.10;99.90;;;;;;4989521;28;20078;-80
2023/08/24 11:05:15;;;;;;;5.30;3.80;;;28.20;99.90;;;;;;4995495;28;20116;-79
2023/08/24 11:07:54;;;;;;;10.15;3.92;;;28.20;99.90;;;;;;4998051;28;20046;-80
2023/08/24 11:10:22;;;;;;;9.25;3.97;;;28.20;99.90;;;;;;4995844;28;20054;-79
2023/08/24 11:13:12;;;;;;;6.57;3.63;;;28.30;99.90;;;;;;4989513;28;20062;-79
2023/08/24 11:15:54;;;;;;;6.13;3.85;;;28.30;99.90;;;;;;4997572;28;20050;-79
2023/08/24 11:18:29;;;;;;;8.57;3.80;;;28.30;99.90;;;;;;4990064;28;20094;-78
2023/08/24 11:20:57;;;;;;;8.00;4.35;;;28.40;99.90;;;;;;5001814;28;20084;-82
2023/08/24 11:23:24;;;;;;;6.15;3.63;;;28.40;99.90;;;;;;4995352;28;20050;-79
2023/08/24 11:25:56;;;;;;;6.97;3.97;;;28.50;99.90;;;;;;4993322;28;20046;-79
2023/08/24 11:28:24;;;;;;;5.57;3.75;;;28.50;99.90;;;;;;4988079;28;20047;-80
2023/08/24 11:30:51;;;;;;;6.18;3.88;;;28.50;99.90;;;;;;4993372;28;20417;-79
2023/08/24 11:33:32;;;;;;;10.18;4.13;;;28.60;99.90;;;;;;4989202;28;20054;-80
2023/08/24 11:36:02;;;;;;;7.10;4.13;;;28.60;99.90;;;;;;4997258;28;20112;-79
2023/08/24 11:38:39;;;;;;;5.55;4.00;;;28.60;99.90;;;;;;4995260;28;20481;-80
2023/08/24 11:41:13;;;;;;;8.98;4.60;;;28.60;99.90;;;;;;4990557;28;20046;-80
2023/08/24 11:43:41;;;;;;;7.30;4.30;;;28.70;99.90;;;;;;4987982;28;20142;-80
2023/08/24 11:46:08;;;;;;;7.68;3.95;;;28.70;99.90;;;;;;4999671;28;20039;-80
2023/08/24 11:48:37;;;;;;;7.00;3.85;;;28.70;99.90;;;;;;5014524;28;20042;-80
2023/08/24 11:51:07;;;;;;;5.53;4.10;;;28.70;99.90;;;;;;5004310;28;20053;-80
2023/08/24 11:53:39;;;;;;;10.75;4.07;;;28.80;99.90;;;;;;5005255;28;20047;-80
2023/08/24 11:56:12;;;;;;;8.13;4.07;;;28.80;99.90;;;;;;5002131;28;20125;-81
2023/08/24 11:58:40;;;;;;;5.85;3.58;;;28.80;99.90;;;;;;4997666;28;20054;-80
2023/08/24 12:01:09;;;;;;;10.88;4.50;;;28.80;99.90;;;;;;5015964;28;20075;-80
2023/08/24 12:03:40;;;;;;;6.50;3.75;;;28.90;99.90;;;;;;5002371;28;20043;-80
2023/08/24 12:06:15;;;;;;;6.38;4.13;;;28.90;99.90;;;;;;4999061;28;20042;-81
2023/08/24 12:08:45;;;;;;;6.13;3.75;;;28.90;99.90;;;;;;5003154;28;20049;-80
2023/08/24 12:11:17;;;;;;;8.93;4.10;;;28.90;99.90;;;;;;4995509;28;20038;-80
2023/08/24 12:13:48;;;;;;;7.07;3.63;;;29.00;99.90;;;;;;4999495;28;20031;-79
2023/08/24 12:16:16;;;;;;;12.98;4.03;;;29.00;99.90;;;;;;5022817;28;20050;-80
2023/08/24 12:18:54;;;;;;;10.23;4.30;;;29.10;99.90;;;;;;5001698;28;20109;-79
2023/08/24 12:21:22;;;;;;;7.90;3.80;;;29.20;99.90;;;;;;5001863;28;20482;-80
2023/08/24 12:23:58;;;;;;;6.55;3.90;;;29.30;99.90;;;;;;5002424;28;20046;-81
2023/08/24 12:26:26;;;;;;;8.50;4.20;;;29.40;99.90;;;;;;4999624;28;20106;-81
2023/08/24 12:28:55;;;;;;;7.50;3.65;;;29.50;99.90;;;;;;5005419;28;20042;-79
2023/08/24 12:31:27;;;;;;;10.13;3.80;;;29.70;99.90;;;;;;5003831;28;20077;-80
2023/08/24 12:34:00;;;;;;;7.80;4.78;;;29.90;99.90;;;;;;5000312;28;20111;-81
2023/08/24 12:36:27;;;;;;;6.63;3.33;;;30.10;99.90;;;;;;4998853;28;20050;-80
2023/08/24 12:38:54;;;;;;;8.27;3.80;;;30.30;99.90;;;;;;5001306;28;20046;-80
2023/08/24 12:41:21;;;;;;;9.55;3.30;;;30.40;99.90;;;;;;4995296;28;20502;-79
2023/08/24 12:43:48;;;;;;;7.43;3.65;;;30.50;99.90;;;;;;5000666;28;20050;-79
2023/08/24 12:46:15;;;;;;;6.45;3.50;;;30.60;99.90;;;;;;5005241;28;20047;-81
2023/08/24 12:48:42;;;;;;;12.35;3.75;;;30.70;99.90;;;;;;5000373;28;20047;-80
2023/08/24 12:51:08;;;;;;;7.25;3.83;;;30.80;99.90;;;;;;4998243;28;20418;-81
2023/08/24 12:53:35;;;;;;;8.07;3.58;;;30.80;99.90;;;;;;5000077;28;20050;-81